Latest Weather Observations for Lameroo AWS

IDS60801

Issued at 4:35 pm CST Thursday 31 July 2014 (issued every 30 minutes, with the page automatically refreshed every 10 minutes)

About weather observations | Map of weather stations | Latest weather observations for SA | Other Formats
Station Details ID: 025562 Name: AUSTIN PLAINS Lat: -35.38 Lon: 140.54 Height: 110.08 m
Data from the previous 72 hours. | See also: Recent months at Lameroo AWS
Date/Time
CST
Temp
°C
App
Temp
°C
Dew
Point
Rel
Hum
%
Delta-T
°C
Wind Press
QNH
hPa
Press
MSL
hPa
Rain
since 9 am
mm
Dir
 
Spd
km/h
Gust
km/h
Spd
kts
Gust
kts
31/04:30pm 9.5 3.0 8.3 92 0.6 W 32 41 17 22 1004.1 1004.3 4.2
31/04:00pm 9.8 4.0 8.1 89 0.8 W 28 41 15 22 1003.8 - 3.6
31/03:30pm 9.4 3.3 8.2 92 0.6 W 30 41 16 22 1003.6 1003.8 3.4
31/03:00pm 9.1 2.1 8.3 95 0.4 WSW 35 48 19 26 1003.5 1003.7 2.8
31/02:30pm 9.5 1.5 8.9 96 0.3 W 41 69 22 37 1002.9 1003.1 2.0
31/02:00pm 10.1 2.5 8.9 92 0.6 WSW 39 57 21 31 1002.5 - 1.4
31/01:55pm 10.2 3.3 9.0 92 0.6 WSW 35 57 19 31 1002.3 - 1.4
31/01:42pm 10.4 3.2 9.0 91 0.7 WSW 37 48 20 26 1002.3 - 0.6
31/01:34pm 11.5 0.4 7.8 78 1.8 WSW 56 76 30 41 1001.9 - 0.0
31/01:33pm 12.1 0.3 7.4 73 2.3 SW 59 76 32 41 1001.6 - 0.0
31/01:31pm 15.4 6.2 8.2 62 3.6 WNW 46 80 25 43 1000.5 - 0.0
31/01:30pm 15.9 7.1 8.2 60 3.9 WNW 44 59 24 32 1000.8 1000.9 0.0
31/01:03pm 16.3 7.7 8.3 59 4.1 WNW 43 63 23 34 1001.1 - 0.0
31/01:00pm 16.4 7.2 8.1 58 4.2 WNW 46 65 25 35 1001.2 - 0.0
31/12:30pm 17.0 6.2 7.6 54 4.8 WNW 54 72 29 39 1001.4 1001.6 0.0
31/12:00pm 17.3 5.5 7.6 53 4.9 WNW 59 80 32 43 1001.6 1001.8 0.0
31/11:40am 17.0 6.3 8.2 56 4.5 NW 54 74 29 40 1002.2 - 0.0
31/11:30am 16.8 6.0 7.7 55 4.6 NW 54 67 29 36 1002.5 1002.7 0.0
31/11:09am 16.6 8.0 8.8 60 4.0 NW 44 65 24 35 1002.8 - 0.0
31/11:00am 16.2 7.0 8.2 59 4.1 NW 46 63 25 34 1002.9 - 0.0
31/10:32am 15.4 6.6 8.2 62 3.6 NW 44 65 24 35 1003.4 - 0.0
31/10:30am 15.4 6.2 8.2 62 3.7 NW 46 65 25 35 1003.4 1003.6 0.0
31/10:00am 15.1 7.2 7.9 62 3.6 NNW 39 52 21 28 1004.4 - 0.0
31/09:30am 13.8 6.1 7.1 64 3.3 NNW 37 48 20 26 1004.6 1004.7 0.0
31/09:00am 12.4 5.4 6.9 69 2.7 NNW 33 43 18 23 1004.9 1005.0 0.0
31/08:30am 11.4 4.9 6.5 72 2.3 NNW 30 39 16 21 1005.3 1005.4 0.0
31/08:00am 10.1 4.3 6.3 77 1.8 NNW 26 33 14 18 1005.3 - 0.0
31/07:30am 8.8 3.3 5.7 81 1.4 NNW 24 32 13 17 1005.5 1005.6 0.0
31/07:00am 8.6 2.7 5.7 82 1.3 NNW 26 33 14 18 1005.8 - 0.0
31/06:30am 8.6 3.1 5.7 82 1.3 NNW 24 30 13 16 1006.1 1006.2 0.0
31/06:00am 8.7 3.6 6.0 83 1.2 NNW 22 32 12 17 1006.2 1006.3 0.0
31/05:30am 9.0 3.5 6.1 82 1.3 NNW 24 33 13 18 1006.4 1006.5 0.0
31/05:00am 9.2 3.8 6.3 82 1.3 NNW 24 30 13 16 1006.5 - 0.0
31/04:30am 9.1 4.5 6.5 84 1.2 NNW 20 26 11 14 1006.9 1007.0 0.0
31/04:00am 9.3 4.4 6.7 84 1.2 NNW 22 26 12 14 1007.1 - 0.0
31/03:30am 9.7 4.4 7.0 83 1.3 NNW 24 30 13 16 1007.5 1007.6 0.0
31/03:00am 10.0 4.5 7.4 84 1.2 N 26 33 14 18 1008.0 1008.1 0.0
31/02:30am 8.9 5.0 7.2 89 0.8 N 17 22 9 12 1008.7 1008.8 0.0
31/02:00am 9.7 5.3 7.6 87 1.0 NNW 20 26 11 14 1009.2 - 0.0
31/01:30am 9.8 5.4 7.6 86 1.1 NNW 20 24 11 13 1009.6 1009.8 0.0
31/01:00am 10.3 6.0 7.9 85 1.2 NNW 20 28 11 15 1010.1 - 0.0
31/12:30am 10.4 6.3 8.0 85 1.2 NNW 19 24 10 13 1010.6 1010.8 0.0
31/12:00am 10.5 6.3 8.1 85 1.2 NNW 20 26 11 14 1011.1 1011.3 0.0
 
Date/Time
CST
Temp
°C
App
Temp
°C
Dew
Point
Rel
Hum
%
Delta-T
°C
Wind Press
QNH
hPa
Press
MSL
hPa
Rain
since 9 am
mm
Dir
 
Spd
km/h
Gust
km/h
Spd
kts
Gust
kts
30/11:30pm 10.9 6.0 8.5 85 1.2 NNW 24 32 13 17 1011.3 1011.5 0.0
30/11:00pm 10.7 6.2 8.5 86 1.1 NNW 22 26 12 14 1011.7 - 0.0
30/10:30pm 9.3 6.0 7.9 91 0.7 N 15 19 8 10 1012.3 1012.5 0.0
30/10:00pm 9.8 6.5 8.2 90 0.8 N 15 17 8 9 1012.9 - 0.0
30/09:30pm 10.1 6.9 8.4 89 0.8 NNW 15 17 8 9 1013.3 1013.5 0.0
30/09:00pm 11.8 8.1 9.5 86 1.2 NW 19 22 10 12 1013.9 1014.0 0.0
30/08:30pm 12.1 7.9 9.7 85 1.2 NW 22 26 12 14 1014.3 1014.4 0.0
30/08:00pm 11.7 7.8 9.3 85 1.2 NW 20 24 11 13 1014.4 - 0.0
30/07:30pm 12.5 8.7 9.9 84 1.3 NW 20 28 11 15 1014.5 1014.6 0.0
30/07:00pm 13.0 9.3 10.0 82 1.6 NW 20 26 11 14 1014.4 - 0.0
30/06:30pm 12.3 9.0 9.7 84 1.3 NW 17 20 9 11 1014.2 1014.3 0.0
30/06:00pm 12.9 9.2 10.1 83 1.4 NW 20 22 11 12 1014.0 1014.1 0.0
30/05:30pm 14.2 9.7 10.2 77 2.1 NW 24 30 13 16 1014.0 1014.1 0.0
30/05:00pm 15.3 11.0 10.7 74 2.4 NW 24 32 13 17 1014.1 - 0.0
30/04:30pm 15.5 11.6 10.9 74 2.5 NW 22 28 12 15 1014.2 1014.3 0.0
30/04:00pm 15.9 11.6 10.9 72 2.7 NW 24 33 13 18 1014.0 - 0.0
30/03:30pm 16.1 10.6 10.6 70 2.9 NW 30 39 16 21 1014.1 1014.2 0.0
30/03:00pm 16.2 10.6 10.3 68 3.1 NW 30 39 16 21 1014.4 1014.5 0.0
30/02:30pm 16.1 10.6 10.4 69 3.0 WNW 30 39 16 21 1014.7 1014.8 0.0
30/02:00pm 17.0 11.5 10.6 66 3.4 NW 30 43 16 23 1014.9 - 0.0
30/01:30pm 15.9 9.7 10.0 68 3.1 WNW 33 46 18 25 1015.1 1015.2 0.0
30/01:00pm 16.2 9.5 9.8 66 3.4 WNW 35 48 19 26 1015.3 - 0.0
30/12:30pm 15.9 10.1 10.9 72 2.7 WNW 32 44 17 24 1015.8 1015.9 0.0
30/12:00pm 16.3 10.0 11.0 71 2.8 WNW 35 46 19 25 1016.2 1016.3 0.0
30/11:30am 15.8 9.5 11.2 74 2.5 WNW 35 46 19 25 1016.6 1016.8 0.0
30/11:00am 15.4 9.5 11.2 76 2.3 WNW 33 44 18 24 1017.0 - 0.0
30/10:30am 15.2 10.4 11.8 80 1.8 WNW 28 35 15 19 1017.2 1017.4 0.0
30/10:00am 14.0 8.7 11.3 84 1.4 NW 30 37 16 20 1017.3 - 0.0
30/09:30am 13.2 8.6 10.9 86 1.2 NW 26 33 14 18 1017.5 1017.7 0.0
30/09:00am 12.6 8.3 10.7 88 1.0 NW 24 30 13 16 1017.4 1017.6 0.6
30/08:30am 12.0 8.3 10.2 89 0.9 NW 20 28 11 15 1017.4 1017.6 0.6
30/08:00am 11.0 7.8 9.8 92 0.6 NNW 17 20 9 11 1017.2 - 0.6
30/07:30am 10.7 7.1 9.9 95 0.4 NW 19 24 10 13 1017.2 1017.4 0.6
30/07:00am 10.7 6.1 9.5 92 0.6 NW 24 32 13 17 1016.7 - 0.6
30/06:30am 10.7 7.1 10.7 100 0.0 NW 20 26 11 14 1016.5 1016.7 0.6
30/06:00am 10.2 6.5 10.2 100 0.0 NW 20 26 11 14 1016.1 1016.2 0.6
30/05:30am 10.3 6.6 10.3 100 0.0 NNW 20 26 11 14 1015.8 1015.9 0.6
30/05:00am 10.5 6.8 10.0 97 0.3 NW 20 24 11 13 1016.0 - 0.6
30/04:30am 10.4 7.3 10.4 100 0.0 NNW 17 20 9 11 1015.9 1016.0 0.6
30/04:00am 10.8 7.8 10.8 100 0.0 NNW 17 22 9 12 1016.2 - 0.6
30/03:30am 10.5 7.5 10.5 100 0.0 NNW 17 19 9 10 1016.2 1016.3 0.6
30/03:00am 10.8 8.2 10.8 100 0.0 NW 15 19 8 10 1016.3 1016.4 0.6
30/02:30am 10.4 8.1 10.4 100 0.0 NNW 13 17 7 9 1016.7 1016.9 0.6
30/02:00am 10.4 7.3 10.4 100 0.0 NW 17 20 9 11 1016.7 - 0.6
30/01:30am 10.6 8.0 10.6 100 0.0 NW 15 19 8 10 1016.8 1017.0 0.6
30/01:00am 11.5 8.4 11.5 100 0.0 NW 19 24 10 13 1016.9 - 0.6
30/12:30am 11.6 8.6 10.5 93 0.6 NW 17 20 9 11 1016.8 1017.0 0.4
30/12:00am 11.2 8.4 11.2 100 0.0 NW 17 20 9 11 1016.9 1017.1 0.4
 
Date/Time
CST
Temp
°C
App
Temp
°C
Dew
Point
Rel
Hum
%
Delta-T
°C
Wind Press
QNH
hPa
Press
MSL
hPa
Rain
since 9 am
mm
Dir
 
Spd
km/h
Gust
km/h
Spd
kts
Gust
kts
29/11:30pm 10.3 7.6 10.3 100 0.0 NW 15 17 8 9 1017.0 1017.2 0.4
29/11:00pm 11.2 9.1 11.2 100 0.0 NW 13 15 7 8 1017.1 - 0.4
29/10:30pm 11.9 9.7 10.8 93 0.6 WNW 13 15 7 8 1017.1 1017.3 0.4
29/10:00pm 11.5 8.7 11.5 100 0.0 NW 17 20 9 11 1016.9 - 0.4
29/09:30pm 12.0 8.7 10.9 93 0.6 NW 19 26 10 14 1016.7 1016.9 0.4
29/09:00pm 12.5 9.4 11.7 95 0.4 NW 19 22 10 12 1016.7 1016.9 0.4
29/08:30pm 12.9 10.1 11.3 90 0.8 WNW 17 20 9 11 1016.8 1017.0 0.2
29/08:00pm 13.0 9.8 11.2 89 1.0 NW 19 22 10 12 1016.4 - 0.2
29/07:30pm 13.4 9.0 11.6 89 1.0 WNW 26 33 14 18 1016.4 1016.6 0.2
29/07:00pm 13.6 8.4 11.7 88 1.0 WNW 30 39 16 21 1016.0 - 0.2
29/06:30pm 13.5 9.5 11.7 89 1.0 WNW 24 32 13 17 1016.0 1016.1 0.2
29/06:00pm 14.1 9.2 11.4 84 1.4 WNW 28 35 15 19 1015.9 1016.0 0.0
29/05:30pm 14.6 9.2 11.0 79 1.9 WNW 30 41 16 22 1015.4 1015.5 0.0
29/05:00pm 14.9 9.5 10.9 77 2.1 WNW 30 43 16 23 1015.1 - 0.0
29/04:30pm 15.1 10.1 10.9 76 2.2 W 28 39 15 21 1015.0 1015.1 0.0
29/04:00pm 15.4 10.4 10.8 74 2.5 WNW 28 37 15 20 1014.6 - 0.0
29/03:30pm 15.7 10.4 11.1 74 2.5 WNW 30 43 16 23 1014.4 1014.5 0.0
29/03:00pm 15.4 11.5 12.0 80 1.9 WNW 24 35 13 19 1014.4 1014.5 0.0
29/02:30pm 14.3 8.9 12.2 87 1.1 WNW 32 44 17 24 1014.5 1014.6 0.0
29/02:11pm 14.6 8.9 11.0 79 1.9 WNW 32 54 17 29 1014.4 - 0.0
29/02:00pm 14.9 10.4 11.3 79 1.9 WNW 26 35 14 19 1014.5 - 0.0
29/01:31pm 13.7 7.6 11.9 89 1.0 W 35 56 19 30 1014.5 - 0.0
29/01:30pm 13.6 7.1 11.8 89 1.0 W 37 56 20 30 1014.6 1014.7 0.0
29/01:19pm 14.1 6.6 10.9 81 1.7 W 41 59 22 32 1014.4 - 0.0
29/01:00pm 15.4 7.1 10.2 71 2.7 WNW 44 63 24 34 1014.0 - 0.0
29/12:57pm 15.7 7.6 10.0 69 3.0 WNW 43 63 23 34 1013.8 - 0.0
29/12:30pm 15.9 9.4 10.2 69 3.0 WNW 35 50 19 27 1014.0 1014.1 0.0
29/12:00pm 16.7 9.6 10.8 68 3.2 WNW 39 52 21 28 1014.5 1014.6 0.0
29/11:30am 16.0 8.8 10.7 71 2.8 WNW 39 50 21 27 1014.9 1015.0 0.0
29/11:00am 15.3 8.5 10.5 73 2.5 NW 37 46 20 25 1015.1 - 0.0
29/10:30am 13.9 6.5 9.9 77 2.1 NW 39 54 21 29 1015.2 1015.3 0.0
29/10:00am 13.6 7.9 9.8 78 2.0 NW 30 41 16 22 1015.2 - 0.0
29/09:30am 12.9 6.7 9.4 79 1.8 NW 32 41 17 22 1015.1 1015.2 0.0
29/09:00am 11.5 6.1 8.2 80 1.6 NNW 26 33 14 18 1014.9 1015.0 0.0
29/08:30am 10.4 4.8 7.3 81 1.5 NNW 26 37 14 20 1014.8 1014.9 0.0
29/08:00am 8.9 3.8 6.0 82 1.3 NNW 22 28 12 15 1014.9 - 0.0
29/07:30am 7.7 2.8 5.2 84 1.1 NNW 20 24 11 13 1014.8 1014.9 0.0
29/07:00am 7.5 2.5 4.8 83 1.2 NNW 20 26 11 14 1014.5 - 0.0
29/06:30am 8.0 3.3 5.1 82 1.3 NNW 19 24 10 13 1014.3 1014.4 0.0
29/06:00am 7.2 2.8 4.7 84 1.1 NNW 17 19 9 10 1014.5 1014.6 0.0
29/05:30am 7.4 2.6 4.7 83 1.2 NNW 19 22 10 12 1014.1 1014.2 0.0
29/05:00am 7.8 2.9 5.1 83 1.2 NNW 20 24 11 13 1013.8 - 0.0
29/04:30am 7.5 2.8 5.0 84 1.1 NNW 19 24 10 13 1013.8 1013.9 0.0
29/04:00am 7.9 3.0 5.2 83 1.2 NNW 20 26 11 14 1013.9 - 0.0
29/03:30am 7.8 2.9 5.3 84 1.1 NNW 20 26 11 14 1013.6 1013.8 0.0
29/03:00am 7.8 2.9 5.3 84 1.1 NNW 20 26 11 14 1014.1 1014.2 0.0
29/02:30am 7.6 2.8 5.4 86 1.0 NNW 20 26 11 14 1014.4 1014.5 0.0
29/02:00am 8.1 2.9 5.6 84 1.1 NNW 22 28 12 15 1014.4 - 0.0
29/01:30am 8.4 3.3 6.0 85 1.1 NNW 22 28 12 15 1014.7 1014.8 0.0
29/01:00am 8.0 3.2 5.6 85 1.1 NNW 20 24 11 13 1014.9 - 0.0
29/12:30am 8.4 3.9 5.9 84 1.1 NNW 19 24 10 13 1015.1 1015.2 0.0
29/12:00am 8.5 3.8 6.1 85 1.1 NNW 20 24 11 13 1015.3 1015.4 0.0
 
Date/Time
CST
Temp
°C
App
Temp
°C
Dew
Point
Rel
Hum
%
Delta-T
°C
Wind Press
QNH
hPa
Press
MSL
hPa
Rain
since 9 am
mm
Dir
 
Spd
km/h
Gust
km/h
Spd
kts
Gust
kts
28/11:30pm 8.1 3.6 6.1 87 0.9 NW 19 22 10 12 1015.6 1015.7 0.0
28/11:00pm 8.3 3.7 6.3 87 0.9 NNW 20 24 11 13 1015.7 - 0.0
28/10:30pm 7.9 4.2 6.2 89 0.8 NNW 15 19 8 10 1016.0 1016.1 0.0
28/10:00pm 8.4 4.1 6.9 90 0.7 NW 19 20 10 11 1016.1 - 0.0
28/09:30pm 7.5 3.7 7.5 100 0.0 NNW 17 19 9 10 1016.4 1016.6 0.0
28/09:00pm 6.5 2.6 5.3 92 0.5 NW 15 17 8 9 1016.5 1016.7 0.0
28/08:30pm 6.9 3.4 5.4 90 0.7 NNW 13 15 7 8 1016.2 1016.3 0.0
28/08:00pm 8.8 5.2 6.9 88 0.9 NW 15 17 8 9 1016.1 - 0.0
28/07:30pm 8.8 5.2 6.9 88 0.9 NNW 15 19 8 10 1015.9 1016.0 0.0
28/07:00pm 7.8 4.4 5.9 88 0.9 N 13 15 7 8 1015.5 - 0.0
28/06:30pm 9.0 6.6 7.0 87 0.9 N 9 11 5 6 1015.4 1015.5 0.0
28/06:00pm 10.4 7.8 7.8 84 1.3 N 11 13 6 7 1015.4 1015.5 0.0
28/05:30pm 11.1 8.0 8.7 85 1.2 N 15 19 8 10 1015.0 1015.1 0.0
28/05:00pm 13.2 10.3 9.5 78 1.9 N 15 19 8 10 1014.8 - 0.0

Other Formats:

Comma delimited format used in spreadsheet applications
http://www.bom.gov.au/fwo/IDS60801/IDS60801.94690.axf

JavaScript Object Notation format (JSON) in row-major order
http://www.bom.gov.au/fwo/IDS60801/IDS60801.94690.json